Time;durP1;ratioP1;P1;durP2;ratioP2;P2;SDS_P1;SDS_P2;PMS_P1;PMS_P2;Temp;Humidity;BMP_temperature;BMP_pressure;BME280_temperature;BME280_humidity;BME280_pressure;Samples;Min_cycle;Max_cycle;Signal;HPM_P1;HPM_P2
2023/10/06 00:01:31;;;;;;;829.45;476.10;;;14.30;99.90;;;;;;5075041;28;20036;-84
2023/10/06 00:03:59;;;;;;;952.35;627.67;;;14.30;99.90;;;;;;5093592;28;20052;-84
2023/10/06 00:06:27;;;;;;;939.53;624.75;;;14.30;99.90;;;;;;5075871;28;20039;-83
2023/10/06 00:08:56;;;;;;;832.78;476.63;;;14.30;99.90;;;;;;5079991;28;20393;-83
2023/10/06 00:11:31;;;;;;;845.45;482.30;;;14.30;99.90;;;;;;5073440;28;20051;-84
2023/10/06 00:14:00;;;;;;;937.08;623.28;;;14.50;99.90;;;;;;5057211;28;20056;-83
2023/10/06 00:16:33;;;;;;;942.38;622.58;;;14.30;99.90;;;;;;5055137;28;20493;-84
2023/10/06 00:19:11;;;;;;;953.50;619.35;;;14.30;99.90;;;;;;5061927;28;20052;-84
2023/10/06 00:21:43;;;;;;;948.72;619.75;;;14.30;99.90;;;;;;5065258;28;20576;-84
2023/10/06 00:24:10;;;;;;;844.17;470.33;;;14.30;99.90;;;;;;5072954;28;20092;-84
2023/10/06 00:26:37;;;;;;;981.17;624.50;;;14.30;99.90;;;;;;5053930;28;20032;-84
2023/10/06 00:29:09;;;;;;;818.95;463.13;;;14.30;99.90;;;;;;5032957;28;20072;-84
2023/10/06 00:31:35;;;;;;;959.05;618.50;;;14.30;99.90;;;;;;5055042;28;20051;-84
2023/10/06 00:34:01;;;;;;;973.47;623.35;;;14.30;99.90;;;;;;5086413;28;20190;-83
2023/10/06 00:36:29;;;;;;;970.17;621.97;;;14.30;99.90;;;;;;5093324;28;20051;-84
2023/10/06 00:38:55;;;;;;;901.58;475.88;;;14.30;99.90;;;;;;5092867;28;20090;-83
2023/10/06 00:41:21;;;;;;;995.28;629.08;;;14.20;99.90;;;;;;5065360;28;20072;-84
2023/10/06 00:43:50;;;;;;;972.35;606.75;;;14.30;99.90;;;;;;5072865;28;20127;-83
2023/10/06 00:46:18;;;;;;;854.28;472.30;;;14.20;99.90;;;;;;5055034;28;20040;-83
2023/10/06 00:48:56;;;;;;;1000.30;626.55;;;14.30;99.90;;;;;;5085575;28;20042;-84
2023/10/06 00:51:25;;;;;;;877.90;470.50;;;14.50;99.90;;;;;;5090836;28;20040;-83
2023/10/06 00:53:56;;;;;;;875.65;473.13;;;14.20;99.90;;;;;;5074604;28;20064;-84
2023/10/06 00:56:28;;;;;;;892.38;471.70;;;14.30;99.90;;;;;;5073874;28;20134;-83
2023/10/06 00:58:54;;;;;;;886.63;473.40;;;14.20;99.90;;;;;;5074757;28;20048;-83
2023/10/06 01:01:22;;;;;;;1000.53;612.05;;;14.20;99.90;;;;;;5073012;28;20169;-83
2023/10/06 01:04:08;;;;;;;998.33;617.20;;;14.30;99.90;;;;;;5056787;28;20250;-84
2023/10/06 01:06:38;;;;;;;1016.88;621.45;;;14.20;99.90;;;;;;5092986;28;20093;-84
2023/10/06 01:11:51;;;;;;;1008.55;623.15;;;14.30;99.90;;;;;;5091372;28;20032;-83
2023/10/06 01:14:25;;;;;;;1014.97;617.50;;;14.30;99.90;;;;;;5058229;28;20044;-84
2023/10/06 01:16:51;;;;;;;1012.47;608.13;;;14.30;99.90;;;;;;5072617;28;20052;-83
2023/10/06 01:19:26;;;;;;;898.65;469.80;;;14.30;99.90;;;;;;5088773;28;20036;-83
2023/10/06 01:21:55;;;;;;;911.65;479.90;;;14.20;99.90;;;;;;5073212;28;20044;-83
2023/10/06 01:24:25;;;;;;;907.45;479.80;;;14.30;99.90;;;;;;5072690;28;20040;-84
2023/10/06 01:26:53;;;;;;;1018.20;628.10;;;14.30;99.90;;;;;;5054452;28;20539;-84
2023/10/06 01:29:22;;;;;;;1004.00;601.55;;;14.30;99.90;;;;;;5054713;28;20044;-84
2023/10/06 01:31:49;;;;;;;1008.90;608.38;;;14.30;99.90;;;;;;5051233;28;20195;-84
2023/10/06 01:34:15;;;;;;;889.47;479.50;;;14.40;99.90;;;;;;5071924;28;20040;-84
2023/10/06 01:36:45;;;;;;;885.83;465.85;;;14.30;99.90;;;;;;5090253;28;20040;-84
2023/10/06 01:39:22;;;;;;;1017.33;615.40;;;14.30;99.90;;;;;;5092470;28;20050;-84
2023/10/06 01:41:49;;;;;;;898.65;476.88;;;14.30;99.90;;;;;;5092553;28;20056;-84
2023/10/06 01:44:15;;;;;;;883.42;474.33;;;14.30;99.90;;;;;;5090390;28;20075;-84
2023/10/06 01:46:42;;;;;;;886.90;474.42;;;14.30;99.90;;;;;;5065122;28;20037;-84
2023/10/06 01:49:11;;;;;;;892.58;477.20;;;14.30;99.90;;;;;;5053955;28;20060;-84
2023/10/06 01:51:38;;;;;;;1001.75;613.05;;;14.50;99.90;;;;;;5056297;28;20032;-84
2023/10/06 01:54:12;;;;;;;889.55;477.10;;;14.40;99.90;;;;;;5090767;28;20075;-84
2023/10/06 01:56:44;;;;;;;884.88;467.08;;;14.40;99.90;;;;;;5091975;28;20105;-84
2023/10/06 01:59:12;;;;;;;1007.83;619.60;;;14.40;99.90;;;;;;5074313;28;20044;-84
2023/10/06 02:01:39;;;;;;;896.50;469.33;;;14.40;99.90;;;;;;5092101;28;20040;-84
2023/10/06 02:04:10;;;;;;;914.17;481.48;;;14.40;99.90;;;;;;5092617;28;20051;-83
2023/10/06 02:06:37;;;;;;;915.42;471.73;;;14.40;99.90;;;;;;5081431;28;20049;-83
2023/10/06 02:09:05;;;;;;;916.70;476.95;;;14.40;99.90;;;;;;5058318;28;20382;-83
2023/10/06 02:11:32;;;;;;;924.83;479.25;;;14.40;99.90;;;;;;5075800;28;20056;-83
2023/10/06 02:13:58;;;;;;;1047.50;617.60;;;14.40;99.90;;;;;;5075686;28;20405;-83
2023/10/06 02:16:26;;;;;;;1058.72;631.65;;;14.40;99.90;;;;;;5041877;28;20044;-83
2023/10/06 02:18:54;;;;;;;930.88;479.85;;;14.50;99.90;;;;;;5075695;28;20179;-84
2023/10/06 02:21:28;;;;;;;932.67;479.42;;;14.40;99.90;;;;;;5071161;28;20050;-83
2023/10/06 02:24:00;;;;;;;1053.75;619.95;;;14.50;99.90;;;;;;5095579;28;20052;-84
2023/10/06 02:26:25;;;;;;;1050.63;621.80;;;14.50;99.90;;;;;;5059276;28;20039;-83
2023/10/06 02:28:53;;;;;;;951.30;489.73;;;14.50;99.90;;;;;;5065534;28;20037;-83
2023/10/06 02:31:21;;;;;;;1065.13;615.60;;;14.60;99.90;;;;;;5073674;28;20560;-84
2023/10/06 02:33:49;;;;;;;1052.72;613.38;;;14.50;99.90;;;;;;5060696;28;20044;-83
2023/10/06 02:36:17;;;;;;;934.25;484.40;;;14.50;99.90;;;;;;5094342;28;20056;-84
2023/10/06 02:38:46;;;;;;;931.90;480.58;;;14.60;99.90;;;;;;5095344;28;20040;-83
2023/10/06 02:41:19;;;;;;;1044.63;612.40;;;14.60;99.90;;;;;;5095415;28;20570;-83
2023/10/06 02:43:50;;;;;;;910.05;472.58;;;14.60;99.90;;;;;;5095544;28;20047;-83
2023/10/06 02:46:16;;;;;;;914.55;477.00;;;14.50;99.90;;;;;;5068082;28;20091;-83
2023/10/06 02:48:51;;;;;;;1044.50;625.03;;;14.60;99.90;;;;;;5079323;28;20481;-83
2023/10/06 02:51:18;;;;;;;1040.30;601.80;;;14.60;99.90;;;;;;5074909;28;20477;-83
2023/10/06 02:53:49;;;;;;;978.78;491.45;;;14.50;99.90;;;;;;5056893;28;20044;-84
2023/10/06 02:56:18;;;;;;;1088.80;619.03;;;14.70;99.90;;;;;;5060585;28;20059;-84
2023/10/06 02:58:44;;;;;;;950.67;484.52;;;14.50;99.90;;;;;;5074998;28;20032;-84
2023/10/06 03:01:11;;;;;;;949.72;482.33;;;14.60;99.90;;;;;;5076961;28;20044;-84
2023/10/06 03:03:37;;;;;;;1063.43;615.30;;;14.50;99.90;;;;;;5095166;28;20043;-84
2023/10/06 03:06:16;;;;;;;951.33;481.23;;;14.50;99.90;;;;;;5095017;28;20109;-83
2023/10/06 03:08:42;;;;;;;964.70;499.35;;;14.50;99.90;;;;;;5071022;28;20037;-84
2023/10/06 03:11:11;;;;;;;1070.13;604.50;;;14.50;99.90;;;;;;5079141;28;20051;-84
2023/10/06 03:13:42;;;;;;;1080.20;609.03;;;14.50;99.90;;;;;;5060219;28;20093;-84
2023/10/06 03:16:11;;;;;;;990.92;495.88;;;14.50;99.90;;;;;;5094745;28;20059;-84
2023/10/06 03:18:38;;;;;;;959.55;480.80;;;14.50;99.90;;;;;;5093754;28;20151;-83
2023/10/06 03:21:15;;;;;;;1087.32;610.47;;;14.50;99.90;;;;;;5057891;28;20044;-83
2023/10/06 03:23:47;;;;;;;1090.28;609.22;;;14.70;99.90;;;;;;5076991;28;20059;-84
2023/10/06 03:26:22;;;;;;;1099.97;625.50;;;14.50;99.90;;;;;;5075464;28;20036;-84
2023/10/06 03:28:52;;;;;;;1081.55;616.13;;;14.70;99.90;;;;;;5076169;28;20051;-84
2023/10/06 03:33:48;;;;;;;1132.90;618.25;;;14.40;99.90;;;;;;5094155;28;20052;-84
2023/10/06 03:36:25;;;;;;;1129.15;611.50;;;14.50;99.90;;;;;;5076053;28;20434;-84
2023/10/06 03:38:57;;;;;;;1011.90;501.35;;;14.50;99.90;;;;;;5094030;28;20115;-84
2023/10/06 03:41:31;;;;;;;1011.95;500.38;;;14.70;99.90;;;;;;5065091;28;20397;-84
2023/10/06 03:44:00;;;;;;;997.58;494.77;;;14.40;99.90;;;;;;5073959;28;20119;-84
2023/10/06 03:46:35;;;;;;;999.92;488.08;;;14.40;99.90;;;;;;5045906;28;20055;-84
2023/10/06 03:49:03;;;;;;;1108.10;619.78;;;14.40;99.90;;;;;;5075996;28;20051;-84
2023/10/06 03:51:29;;;;;;;1104.75;618.08;;;14.40;99.90;;;;;;5091573;28;20048;-84
2023/10/06 03:53:56;;;;;;;1100.68;608.70;;;14.40;99.90;;;;;;5071864;28;20087;-84
2023/10/06 03:56:22;;;;;;;1106.03;623.88;;;14.40;99.90;;;;;;5093727;28;20123;-84
2023/10/06 03:58:48;;;;;;;994.47;491.48;;;14.40;99.90;;;;;;5093733;28;20123;-83
2023/10/06 04:01:25;;;;;;;1098.45;621.55;;;14.30;99.90;;;;;;5093377;28;20050;-83
2023/10/06 04:03:53;;;;;;;978.42;488.52;;;14.30;99.90;;;;;;5073531;28;20442;-84
2023/10/06 04:06:23;;;;;;;971.33;487.63;;;14.30;99.90;;;;;;5079957;28;20043;-83
2023/10/06 04:08:49;;;;;;;1079.82;612.90;;;14.40;99.90;;;;;;5075728;28;20040;-84
2023/10/06 04:11:15;;;;;;;1052.57;609.10;;;14.30;99.90;;;;;;5075727;28;20040;-83
2023/10/06 04:13:41;;;;;;;938.95;486.52;;;14.30;99.90;;;;;;5068402;28;20046;-84
2023/10/06 04:16:07;;;;;;;955.35;485.73;;;14.30;99.90;;;;;;5054936;28;20504;-84
2023/10/06 04:18:33;;;;;;;962.13;493.70;;;14.30;99.90;;;;;;5055300;28;20049;-84
2023/10/06 04:20:59;;;;;;;949.58;479.13;;;14.30;99.90;;;;;;5078354;28;20561;-83
2023/10/06 04:23:25;;;;;;;1062.57;604.22;;;14.30;99.90;;;;;;5067451;28;20040;-83
2023/10/06 04:25:55;;;;;;;969.03;491.08;;;14.30;99.90;;;;;;5072901;28;20054;-83
2023/10/06 04:28:25;;;;;;;1096.95;598.60;;;14.30;99.90;;;;;;5072811;28;20029;-84
2023/10/06 04:30:51;;;;;;;987.28;495.02;;;14.30;99.90;;;;;;5075236;28;20048;-83
2023/10/06 04:33:21;;;;;;;1108.78;617.08;;;14.30;99.90;;;;;;5092084;28;20150;-83
2023/10/06 04:36:01;;;;;;;1124.60;619.35;;;14.30;99.90;;;;;;5073004;28;20045;-83
2023/10/06 04:38:27;;;;;;;1135.00;609.35;;;14.30;99.90;;;;;;5055228;28;20044;-83
2023/10/06 04:40:53;;;;;;;1038.80;501.92;;;14.30;99.90;;;;;;5067129;28;20051;-83
2023/10/06 04:43:19;;;;;;;1147.68;616.13;;;14.30;99.90;;;;;;5070964;28;20055;-83
2023/10/06 04:45:47;;;;;;;1154.82;617.42;;;14.40;99.90;;;;;;5055928;28;20094;-83
2023/10/06 04:48:12;;;;;;;1047.63;508.35;;;14.30;99.90;;;;;;5054878;28;20041;-83
2023/10/06 04:50:39;;;;;;;1048.03;499.92;;;14.20;99.90;;;;;;5075304;28;20189;-83
2023/10/06 04:53:05;;;;;;;1120.10;604.50;;;14.20;99.90;;;;;;5083642;28;20136;-83
2023/10/06 04:55:38;;;;;;;1014.83;488.58;;;14.20;99.90;;;;;;5073893;28;20048;-83
2023/10/06 04:58:13;;;;;;;1027.15;484.13;;;14.20;99.90;;;;;;5054832;28;20040;-83
2023/10/06 05:00:39;;;;;;;1020.63;495.17;;;14.20;99.90;;;;;;5073018;28;20080;-83
2023/10/06 05:03:06;;;;;;;1041.50;498.80;;;14.20;99.90;;;;;;5055373;28;20044;-83
2023/10/06 05:05:37;;;;;;;1051.78;502.10;;;14.20;99.90;;;;;;5054627;28;20106;-84
2023/10/06 05:08:04;;;;;;;1062.40;506.48;;;14.20;99.90;;;;;;5062499;28;20047;-83
2023/10/06 05:10:31;;;;;;;1056.45;496.92;;;14.30;99.90;;;;;;5072526;28;20048;-83
2023/10/06 05:12:59;;;;;;;1176.45;609.63;;;14.30;99.90;;;;;;5055128;28;20112;-83
2023/10/06 05:15:26;;;;;;;1157.40;597.25;;;14.30;99.90;;;;;;5072584;28;20094;-84
2023/10/06 05:18:03;;;;;;;1185.85;602.13;;;14.30;99.90;;;;;;5061666;28;20048;-83
2023/10/06 05:20:33;;;;;;;1054.88;500.55;;;14.30;99.90;;;;;;5089832;28;20058;-84
2023/10/06 05:23:09;;;;;;;1151.97;594.38;;;14.30;99.90;;;;;;5062091;28;20122;-83
2023/10/06 05:25:38;;;;;;;;;;;14.30;99.90;;;;;;5073357;28;20401;-84
2023/10/06 05:28:10;;;;;;;1151.32;583.17;;;14.30;99.90;;;;;;5074590;28;20304;-84
2023/10/06 05:30:37;;;;;;;1062.60;497.10;;;14.30;99.90;;;;;;5072645;28;20074;-84
2023/10/06 05:33:06;;;;;;;1068.15;499.92;;;14.30;99.90;;;;;;5066460;28;20040;-83
2023/10/06 05:35:40;;;;;;;1057.47;502.27;;;14.30;99.90;;;;;;5074615;28;20036;-83
2023/10/06 05:38:15;;;;;;;1170.95;602.47;;;14.20;99.90;;;;;;5083947;28;20072;-83
2023/10/06 05:40:44;;;;;;;1036.57;491.10;;;14.20;99.90;;;;;;5072398;28;20127;-83
2023/10/06 05:43:15;;;;;;;1233.53;584.47;;;14.20;99.90;;;;;;5048373;28;20044;-84
2023/10/06 05:45:42;;;;;;;1241.07;595.33;;;14.20;99.90;;;;;;5057071;28;20048;-83
2023/10/06 05:48:10;;;;;;;1139.88;511.83;;;14.10;99.90;;;;;;5090527;28;20040;-83
2023/10/06 05:50:36;;;;;;;1144.38;509.58;;;14.40;99.90;;;;;;5077990;28;20559;-83
2023/10/06 05:53:12;;;;;;;1263.43;595.80;;;14.10;99.90;;;;;;5096695;28;20158;-83
2023/10/06 05:55:41;;;;;;;1147.90;506.20;;;14.10;99.90;;;;;;5096239;28;20040;-84
2023/10/06 05:58:14;;;;;;;1146.95;510.52;;;14.30;99.90;;;;;;5095222;28;20048;-83
2023/10/06 06:03:33;;;;;;;1142.63;503.45;;;14.20;99.90;;;;;;4990951;28;20042;-84
2023/10/06 06:06:08;;;;;;;1282.57;602.27;;;14.20;99.90;;;;;;5014090;28;20442;-84
2023/10/06 06:08:34;;;;;;;1146.82;608.22;;;14.40;99.90;;;;;;4997913;28;20058;-83
2023/10/06 06:11:00;;;;;;;975.38;489.13;;;14.20;99.90;;;;;;4998548;28;20403;-84
2023/10/06 06:13:26;;;;;;;708.83;567.20;;;14.20;99.90;;;;;;4981183;28;20077;-84
2023/10/06 06:15:51;;;;;;;8.75;2.63;;;14.20;99.90;;;;;;4997334;28;20149;-84
2023/10/06 06:18:17;;;;;;;9.93;2.95;;;14.20;99.90;;;;;;5010532;28;20502;-84
2023/10/06 06:20:43;;;;;;;5.60;2.97;;;14.20;99.90;;;;;;5031845;28;20070;-83
2023/10/06 06:23:12;;;;;;;725.95;432.38;;;14.20;99.90;;;;;;5010662;28;20113;-84
2023/10/06 06:25:38;;;;;;;585.38;398.95;;;14.20;99.90;;;;;;5031531;28;20061;-82
2023/10/06 06:28:05;;;;;;;408.27;346.80;;;14.20;99.90;;;;;;5032875;28;20056;-84
2023/10/06 06:30:36;;;;;;;542.10;504.58;;;14.30;99.90;;;;;;5030802;28;20421;-80
2023/10/06 06:33:04;;;;;;;92.25;86.45;;;14.30;99.90;;;;;;5032740;28;20128;-81
2023/10/06 06:35:30;;;;;;;687.10;424.38;;;14.30;99.90;;;;;;5033077;28;20144;-81
2023/10/06 06:38:01;;;;;;;562.00;387.98;;;14.30;99.90;;;;;;5033116;28;20124;-80
2023/10/06 06:40:31;;;;;;;658.58;567.50;;;14.30;99.90;;;;;;5052144;28;20065;-81
2023/10/06 06:43:00;;;;;;;624.20;561.80;;;14.40;99.90;;;;;;5074533;28;20393;-88
2023/10/06 06:45:28;;;;;;;537.78;388.08;;;14.40;99.90;;;;;;5047297;28;20389;-82
2023/10/06 06:47:54;;;;;;;338.05;310.17;;;14.40;99.90;;;;;;5055134;28;20045;-83
2023/10/06 06:50:21;;;;;;;676.13;571.50;;;14.40;99.90;;;;;;5038290;28;20045;-82
2023/10/06 06:52:53;;;;;;;786.35;589.42;;;14.50;99.90;;;;;;5052684;28;20071;-83
2023/10/06 06:55:20;;;;;;;806.80;592.97;;;14.50;99.90;;;;;;5046164;28;20043;-84
2023/10/06 06:57:48;;;;;;;941.80;592.58;;;14.80;99.90;;;;;;5044591;28;20052;-84
2023/10/06 07:00:21;;;;;;;911.85;600.65;;;14.60;99.90;;;;;;5041874;28;20042;-84
2023/10/06 07:02:50;;;;;;;866.17;461.20;;;14.60;99.90;;;;;;5049670;28;20114;-83
2023/10/06 07:05:18;;;;;;;870.65;460.92;;;14.70;99.90;;;;;;5053479;28;20120;-83
2023/10/06 07:07:45;;;;;;;829.85;460.60;;;14.70;99.90;;;;;;5020329;28;20044;-83
2023/10/06 07:10:14;;;;;;;854.28;460.70;;;14.90;99.90;;;;;;5054515;28;20134;-84
2023/10/06 07:12:44;;;;;;;859.13;462.65;;;14.80;99.90;;;;;;5054532;28;20041;-82
2023/10/06 07:15:17;;;;;;;899.08;612.20;;;14.80;99.90;;;;;;5062678;28;20071;-83
2023/10/06 07:17:53;;;;;;;784.50;451.83;;;14.80;99.90;;;;;;5056844;28;20044;-83
2023/10/06 07:20:26;;;;;;;915.50;607.50;;;14.90;99.90;;;;;;5056784;28;20048;-83
2023/10/06 07:22:55;;;;;;;914.35;607.30;;;15.20;99.90;;;;;;5079700;28;20052;-83
2023/10/06 07:25:26;;;;;;;933.92;615.17;;;14.90;99.90;;;;;;5094704;28;20051;-84
2023/10/06 07:27:55;;;;;;;985.15;614.55;;;14.90;99.90;;;;;;5075754;28;20044;-84
2023/10/06 07:30:22;;;;;;;916.25;477.65;;;14.90;99.90;;;;;;5094566;28;20039;-83
2023/10/06 07:32:50;;;;;;;1097.53;621.83;;;14.90;99.90;;;;;;5093427;28;20044;-83
2023/10/06 07:35:18;;;;;;;1095.05;616.15;;;14.90;99.90;;;;;;5094537;28;20485;-84
2023/10/06 07:37:47;;;;;;;1109.72;621.58;;;14.90;99.90;;;;;;5094019;28;20119;-82
2023/10/06 07:40:18;;;;;;;1113.10;622.95;;;14.90;99.90;;;;;;5071893;28;20059;-80
2023/10/06 07:42:52;;;;;;;1035.60;503.70;;;15.00;99.90;;;;;;5056291;28;20040;-84
2023/10/06 07:45:18;;;;;;;1184.68;613.80;;;14.90;99.90;;;;;;5055967;28;20128;-82
2023/10/06 07:47:44;;;;;;;1078.88;512.17;;;15.00;99.90;;;;;;5078068;28;20071;-82
2023/10/06 07:50:14;;;;;;;1187.63;622.65;;;14.80;99.90;;;;;;5071122;28;20044;-82
2023/10/06 07:52:41;;;;;;;1119.65;513.22;;;14.90;99.90;;;;;;5056411;28;20408;-83
2023/10/06 07:55:09;;;;;;;1095.05;508.10;;;14.90;99.90;;;;;;5074221;28;20404;-82
2023/10/06 07:57:45;;;;;;;1088.75;511.80;;;14.90;99.90;;;;;;5075779;28;20181;-82
2023/10/06 08:00:12;;;;;;;;;;;15.00;99.90;;;;;;5093239;28;20040;-82
2023/10/06 08:02:41;;;;;;;1213.28;523.38;;;15.00;99.90;;;;;;5075444;28;19924;-82
2023/10/06 08:05:11;;;;;;;1313.00;627.63;;;15.00;99.90;;;;;;5075424;28;20044;-82
2023/10/06 08:07:44;;;;;;;1318.87;614.93;;;15.00;99.90;;;;;;5070373;28;20370;-81
2023/10/06 08:10:18;;;;;;;1277.07;545.80;;;15.10;99.90;;;;;;5055869;28;20091;-91
2023/10/06 08:12:46;;;;;;;1336.57;564.83;;;15.00;99.90;;;;;;5077168;28;20393;-83
2023/10/06 08:15:17;;;;;;;1336.97;615.10;;;15.10;99.90;;;;;;5093605;28;20044;-87
2023/10/06 08:17:46;;;;;;;1334.73;605.57;;;15.10;99.90;;;;;;5055000;28;20044;-82
2023/10/06 08:20:14;;;;;;;1366.37;578.33;;;15.20;99.90;;;;;;5076938;28;20044;-84
2023/10/06 08:22:41;;;;;;;1379.53;577.43;;;15.20;99.90;;;;;;5073115;28;20098;-84
2023/10/06 08:25:09;;;;;;;1396.53;598.53;;;15.30;99.90;;;;;;5055325;28;20045;-83
2023/10/06 08:27:35;;;;;;;1343.90;616.60;;;15.30;99.90;;;;;;5055516;28;20475;-83
2023/10/06 08:30:02;;;;;;;1351.60;625.53;;;15.30;99.90;;;;;;5055331;28;20041;-82
2023/10/06 08:32:27;;;;;;;1333.47;607.57;;;15.30;99.90;;;;;;5055347;28;20041;-82
2023/10/06 08:34:53;;;;;;;1394.17;579.60;;;15.40;99.90;;;;;;5055066;28;20048;-82
2023/10/06 08:37:19;;;;;;;1334.87;615.63;;;15.40;99.90;;;;;;5055147;28;20040;-83
2023/10/06 08:39:46;;;;;;;1336.53;621.33;;;15.40;99.90;;;;;;5055078;28;20079;-83
2023/10/06 08:42:15;;;;;;;1386.43;592.87;;;15.50;99.90;;;;;;5072938;28;20094;-82
2023/10/06 08:44:44;;;;;;;1383.10;591.93;;;15.50;99.90;;;;;;5054982;28;20131;-82
2023/10/06 08:47:13;;;;;;;1323.93;617.53;;;15.50;99.90;;;;;;5073071;28;20037;-83
2023/10/06 08:49:46;;;;;;;1370.10;599.93;;;15.60;99.90;;;;;;5055075;28;20409;-82
2023/10/06 08:52:13;;;;;;;1358.07;598.10;;;15.70;99.90;;;;;;5072924;28;20040;-82
2023/10/06 08:54:42;;;;;;;1355.07;590.57;;;15.70;99.90;;;;;;5072567;28;20083;-82
2023/10/06 08:57:11;;;;;;;1348.87;591.27;;;15.80;99.90;;;;;;5054649;28;20060;-83
2023/10/06 08:59:39;;;;;;;1294.80;614.10;;;15.90;99.90;;;;;;5038141;28;20076;-82
2023/10/06 09:02:05;;;;;;;1330.87;575.10;;;15.80;99.90;;;;;;5055126;28;20049;-82
2023/10/06 09:04:35;;;;;;;1281.87;603.80;;;15.90;99.90;;;;;;5054990;28;20041;-82
2023/10/06 09:07:08;;;;;;;1329.87;584.23;;;16.00;99.90;;;;;;5072757;28;20044;-82
2023/10/06 09:09:34;;;;;;;1277.53;593.67;;;16.10;99.90;;;;;;5072925;28;20059;-82
2023/10/06 09:12:00;;;;;;;1276.37;596.80;;;16.20;99.90;;;;;;5072576;28;20048;-82
2023/10/06 09:14:25;;;;;;;1276.93;596.50;;;16.20;99.90;;;;;;5038211;28;20063;-83
2023/10/06 09:16:51;;;;;;;1333.20;583.23;;;16.30;99.90;;;;;;5073742;28;20080;-82
2023/10/06 09:22:59;;;;;;;1272.63;593.57;;;16.40;99.90;;;;;;5076558;28;20054;-82
2023/10/06 09:25:26;;;;;;;1325.53;584.53;;;16.50;99.90;;;;;;5076744;28;20436;-82
2023/10/06 09:28:03;;;;;;;1287.80;601.73;;;16.60;99.90;;;;;;5076505;28;20508;-83
2023/10/06 09:30:30;;;;;;;1321.97;630.43;;;16.60;99.90;;;;;;5076781;28;20058;-82
2023/10/06 09:33:04;;;;;;;1311.33;622.60;;;16.70;99.90;;;;;;5076592;28;20493;-84
2023/10/06 09:35:30;;;;;;;1308.73;620.53;;;16.80;99.90;;;;;;5076754;28;20144;-82
2023/10/06 09:38:16;;;;;;;1361.83;590.43;;;16.90;99.90;;;;;;5076671;28;20075;-82
2023/10/06 09:40:46;;;;;;;1365.78;592.92;;;16.80;99.90;;;;;;5058771;28;20044;-82
2023/10/06 09:43:15;;;;;;;1314.10;621.73;;;17.00;99.90;;;;;;5058474;28;20045;-82
2023/10/06 09:45:42;;;;;;;1371.53;595.20;;;17.10;99.90;;;;;;5058653;28;20067;-82
2023/10/06 09:48:15;;;;;;;1319.30;644.97;;;17.20;99.90;;;;;;5076761;28;20051;-83
2023/10/06 09:50:50;;;;;;;1317.03;639.17;;;17.10;99.90;;;;;;5058729;28;20044;-82
2023/10/06 09:53:19;;;;;;;1315.88;638.50;;;17.30;99.90;;;;;;5077058;28;20036;-82
2023/10/06 09:55:49;;;;;;;1373.73;598.10;;;17.40;99.90;;;;;;5058761;28;20089;-83
2023/10/06 09:58:20;;;;;;;1368.60;596.80;;;17.50;99.90;;;;;;5059070;28;20058;-82
2023/10/06 10:00:46;;;;;;;1315.83;631.40;;;17.50;99.90;;;;;;5059564;28;20095;-82
2023/10/06 10:03:13;;;;;;;1324.00;653.63;;;17.60;99.90;;;;;;5078190;28;20052;-82
2023/10/06 10:05:39;;;;;;;1326.67;641.73;;;17.70;99.90;;;;;;5081993;28;20048;-82
2023/10/06 10:08:10;;;;;;;1326.03;656.23;;;17.70;99.90;;;;;;5094169;28;20041;-82
2023/10/06 10:10:40;;;;;;;1376.50;601.07;;;17.80;99.90;;;;;;5094228;28;20056;-82
2023/10/06 10:13:34;;;;;;;1379.87;600.27;;;17.90;99.90;;;;;;5058022;28;20055;-83
2023/10/06 10:16:16;;;;;;;1384.37;601.50;;;17.90;99.90;;;;;;4988741;28;20058;-83
2023/10/06 10:19:00;;;;;;;1391.87;605.47;;;17.90;99.90;;;;;;4993004;28;20051;-82
2023/10/06 10:21:27;;;;;;;1385.30;603.20;;;18.10;99.90;;;;;;4978419;28;20043;-83
2023/10/06 10:23:56;;;;;;;1332.00;670.20;;;18.10;99.90;;;;;;4979215;28;20058;-83
2023/10/06 10:26:28;;;;;;;1338.80;658.30;;;18.20;99.90;;;;;;4977997;28;20106;-82
2023/10/06 10:29:16;;;;;;;1393.10;603.63;;;18.30;99.90;;;;;;4977012;28;20042;-83
2023/10/06 10:31:56;;;;;;;1333.63;672.03;;;18.40;99.90;;;;;;4985761;28;20078;-82
2023/10/06 10:34:23;;;;;;;1399.97;611.70;;;18.50;99.90;;;;;;4988590;28;20059;-83
2023/10/06 10:37:12;;;;;;;1339.47;667.30;;;18.60;99.90;;;;;;4987249;28;20073;-82
2023/10/06 10:39:44;;;;;;;1339.23;678.33;;;18.60;99.90;;;;;;4968255;28;20066;-82
2023/10/06 10:42:10;;;;;;;1400.60;613.37;;;18.60;99.90;;;;;;4961410;28;20460;-82
2023/10/06 10:44:36;;;;;;;1340.63;683.57;;;18.70;99.90;;;;;;4978369;28;20053;-84
2023/10/06 10:47:06;;;;;;;1399.30;616.77;;;18.90;99.90;;;;;;4961775;28;20098;-82
2023/10/06 10:49:32;;;;;;;1342.90;694.57;;;19.00;99.90;;;;;;4976478;28;20475;-82
2023/10/06 10:52:07;;;;;;;1345.50;703.33;;;19.10;99.90;;;;;;4995487;28;20451;-83
2023/10/06 10:54:33;;;;;;;1347.47;694.83;;;19.30;99.90;;;;;;5060964;28;20045;-83
2023/10/06 10:57:13;;;;;;;1342.23;684.90;;;19.30;99.90;;;;;;5076430;28;20489;-83
2023/10/06 11:00:12;;;;;;;1343.83;688.63;;;19.20;99.90;;;;;;5057195;28;20404;-83
2023/10/06 11:02:46;;;;;;;1340.70;705.60;;;19.40;99.90;;;;;;5074998;28;20052;-83
2023/10/06 11:05:13;;;;;;;1335.78;701.70;;;19.40;99.90;;;;;;5075219;28;20393;-82
2023/10/06 11:07:39;;;;;;;1333.00;705.07;;;19.40;99.90;;;;;;5075129;28;20040;-83
2023/10/06 11:10:05;;;;;;;1388.03;618.87;;;19.40;99.90;;;;;;5075500;28;20040;-82
2023/10/06 11:12:31;;;;;;;1391.40;621.83;;;19.50;99.90;;;;;;5056590;28;20040;-83
2023/10/06 11:15:31;;;;;;;1382.67;612.40;;;19.60;99.90;;;;;;5056554;28;20097;-83
2023/10/06 11:17:55;;;;;;;1383.17;610.73;;;19.70;99.90;;;;;;5070333;28;20052;-82
2023/10/06 11:20:25;;;;;;;1335.40;711.50;;;19.80;99.90;;;;;;5056599;28;20052;-82
2023/10/06 11:22:55;;;;;;;1387.80;615.97;;;19.90;99.90;;;;;;5056277;28;20048;-82
2023/10/06 11:25:27;;;;;;;1387.93;612.70;;;19.90;99.90;;;;;;5056536;28;20055;-82
2023/10/06 11:28:08;;;;;;;1390.50;623.03;;;20.00;99.90;;;;;;5074132;28;20060;-83
2023/10/06 11:30:38;;;;;;;1339.40;723.43;;;19.90;99.90;;;;;;5074095;28;20400;-83
2023/10/06 11:33:06;;;;;;;1393.07;623.13;;;19.90;99.90;;;;;;5056087;28;20040;-83
2023/10/06 11:35:36;;;;;;;1346.07;724.00;;;20.00;99.90;;;;;;5074269;28;20083;-83
2023/10/06 11:38:07;;;;;;;1396.43;629.47;;;20.00;99.90;;;;;;5074217;28;20048;-82
2023/10/06 11:40:35;;;;;;;1338.93;720.20;;;20.10;99.90;;;;;;5055461;28;20048;-83
2023/10/06 11:43:12;;;;;;;1389.73;621.87;;;20.20;99.90;;;;;;5073967;28;20075;-83
2023/10/06 11:45:38;;;;;;;1389.10;619.27;;;20.30;99.90;;;;;;5056063;28;20048;-83
2023/10/06 11:48:04;;;;;;;1395.17;631.37;;;20.30;99.90;;;;;;5056136;28;20389;-83
2023/10/06 11:50:32;;;;;;;1396.10;623.17;;;20.20;99.90;;;;;;5055933;28;20044;-82
2023/10/06 11:52:59;;;;;;;1339.93;728.17;;;20.30;99.90;;;;;;5073873;28;20408;-82
2023/10/06 11:55:31;;;;;;;1384.60;627.17;;;20.40;99.90;;;;;;5073760;28;20036;-82
2023/10/06 11:58:00;;;;;;;1389.77;630.30;;;20.50;99.90;;;;;;5073436;28;20044;-82
2023/10/06 12:00:37;;;;;;;1341.33;742.07;;;20.70;99.90;;;;;;5073461;28;20037;-83
2023/10/06 12:03:06;;;;;;;1335.57;733.77;;;20.80;99.90;;;;;;5055898;28;20044;-83
2023/10/06 12:05:32;;;;;;;1332.03;731.63;;;20.80;99.90;;;;;;5073362;28;20127;-83
2023/10/06 12:08:03;;;;;;;1382.97;634.50;;;20.90;99.90;;;;;;5073404;28;20048;-83
2023/10/06 12:10:29;;;;;;;1320.20;740.80;;;20.90;99.90;;;;;;5055378;28;20481;-82
2023/10/06 12:12:55;;;;;;;1323.97;740.83;;;20.90;99.90;;;;;;5055210;28;20102;-83
2023/10/06 12:15:20;;;;;;;1366.47;627.80;;;21.00;99.90;;;;;;5073281;28;20051;-83
2023/10/06 12:17:46;;;;;;;1375.23;641.73;;;21.10;99.90;;;;;;5073245;28;20050;-83
2023/10/06 12:20:16;;;;;;;1379.47;639.77;;;21.20;99.90;;;;;;5055229;28;20440;-83
2023/10/06 12:22:43;;;;;;;1335.10;747.50;;;21.40;99.90;;;;;;5073059;28;20048;-83
2023/10/06 12:25:14;;;;;;;1338.80;753.60;;;21.50;99.90;;;;;;5054916;28;20059;-83
2023/10/06 12:27:43;;;;;;;1295.75;770.20;;;21.50;99.90;;;;;;5072818;28;20047;-83